Time;durP1;ratioP1;P1;durP2;ratioP2;P2;SDS_P1;SDS_P2;PMS_P1;PMS_P2;Temp;Humidity;BMP_temperature;BMP_pressure;BME280_temperature;BME280_humidity;BME280_pressure;Samples;Min_cycle;Max_cycle;Signal;HPM_P1;HPM_P2
2023/05/08 00:03:23;;;;;;;10.40;8.30;;;;;;;5.55;77.93;99745.30;225515;1280;22725;-74
2023/05/08 00:08:35;;;;;;;8.20;6.60;;;;;;;5.36;78.18;99745.88;225534;1282;22529;-74
2023/05/08 00:13:40;;;;;;;8.50;7.40;;;;;;;5.22;78.34;99745.50;225512;1277;22482;-74
2023/05/08 00:18:53;;;;;;;7.20;6.50;;;;;;;5.05;78.21;99751.74;225565;1282;22601;-74
2023/05/08 00:24:01;;;;;;;8.70;7.00;;;;;;;4.86;78.49;99751.85;225537;1278;22605;-75
2023/05/08 00:29:15;;;;;;;9.30;7.00;;;;;;;4.77;78.70;99749.34;225504;1282;25154;-74
2023/05/08 00:34:17;;;;;;;12.90;11.30;;;;;;;4.70;78.85;99748.23;225562;1280;22542;-74
2023/05/08 00:39:34;;;;;;;11.50;9.90;;;;;;;4.65;79.13;99748.61;225532;1282;22559;-76
2023/05/08 00:44:38;;;;;;;8.80;7.70;;;;;;;4.69;79.45;99745.14;225491;1280;24212;-74
2023/05/08 00:49:41;;;;;;;6.20;5.60;;;;;;;4.78;79.35;99738.95;225427;1277;22563;-75
2023/05/08 00:54:56;;;;;;;4.60;4.10;;;;;;;4.93;79.54;99744.33;225613;1282;22523;-73
2023/05/08 01:00:12;;;;;;;4.90;3.40;;;;;;;5.10;79.15;99745.54;225594;1278;22550;-74
2023/05/08 01:05:28;;;;;;;3.50;3.20;;;;;;;5.25;78.93;99748.75;225559;1282;22545;-73
2023/05/08 01:11:17;;;;;;;2.80;2.60;;;;;;;5.42;78.58;99747.86;225613;1282;22535;-75
2023/05/08 01:16:53;;;;;;;2.90;2.60;;;;;;;5.54;78.31;99754.49;225558;1278;22551;-75
2023/05/08 01:22:39;;;;;;;3.50;3.20;;;;;;;5.61;78.17;99755.42;225473;1280;22677;-74
2023/05/08 01:28:22;;;;;;;4.90;4.20;;;;;;;5.65;77.82;99756.79;225562;1278;22539;-74
2023/05/08 01:33:29;;;;;;;4.70;4.20;;;;;;;5.68;77.63;99760.17;225595;1274;22541;-76
2023/05/08 01:38:46;;;;;;;3.90;3.50;;;;;;;5.70;77.64;99759.52;225560;1280;22540;-75
2023/05/08 01:44:26;;;;;;;3.40;3.10;;;;;;;5.72;77.45;99763.92;225548;1278;22629;-75
2023/05/08 01:49:45;;;;;;;3.50;3.00;;;;;;;5.75;77.22;99761.95;225564;1282;22560;-76
2023/05/08 01:55:26;;;;;;;3.70;3.40;;;;;;;5.79;77.10;99760.20;225527;1275;22546;-75
2023/05/08 02:00:42;;;;;;;3.40;3.10;;;;;;;5.83;76.99;99756.86;225483;1282;23264;-76
2023/05/08 02:05:47;;;;;;;2.80;2.60;;;;;;;5.86;77.10;99746.80;225574;1282;22538;-75
2023/05/08 02:10:53;;;;;;;2.90;2.60;;;;;;;5.87;76.79;99750.71;225525;1280;22563;-75
2023/05/08 02:15:58;;;;;;;3.20;2.60;;;;;;;5.91;76.57;99756.70;225544;1280;22538;-76
2023/05/08 02:21:08;;;;;;;3.20;2.80;;;;;;;5.92;76.39;99759.26;225593;1278;22554;-75
2023/05/08 02:26:16;;;;;;;2.50;2.30;;;;;;;5.90;76.29;99761.46;225568;1275;22528;-75
2023/05/08 02:31:23;;;;;;;3.60;3.30;;;;;;;5.90;76.06;99765.18;225504;1279;22540;-76
2023/05/08 02:36:28;;;;;;;4.00;3.30;;;;;;;5.93;76.24;99764.25;225558;1282;22545;-75
2023/05/08 02:41:38;;;;;;;4.10;3.50;;;;;;;5.96;76.37;99767.41;225536;1282;22539;-73
2023/05/08 02:47:06;;;;;;;4.10;3.70;;;;;;;5.97;76.28;99772.39;225531;1279;22588;-74
2023/05/08 02:52:16;;;;;;;3.50;3.10;;;;;;;5.98;76.30;99774.58;225488;1282;22893;-73
2023/05/08 02:57:28;;;;;;;4.00;3.50;;;;;;;5.99;76.11;99772.17;225534;1282;22605;-74
2023/05/08 03:02:39;;;;;;;3.80;3.50;;;;;;;6.01;76.41;99772.56;225554;1279;22540;-75
2023/05/08 03:07:44;;;;;;;4.20;3.80;;;;;;;6.06;76.47;99769.33;225530;1275;22624;-74
2023/05/08 03:12:53;;;;;;;5.70;4.90;;;;;;;6.04;76.34;99768.48;225539;1275;22536;-74
2023/05/08 03:18:13;;;;;;;5.20;4.70;;;;;;;6.06;76.41;99768.56;225525;1282;22547;-74
2023/05/08 03:23:20;;;;;;;5.10;3.90;;;;;;;6.08;76.41;99777.05;225565;1282;22592;-73
2023/05/08 03:28:31;;;;;;;5.60;3.90;;;;;;;6.09;75.95;99781.85;225478;1281;22553;-74
2023/05/08 03:33:47;;;;;;;4.70;4.30;;;;;;;6.08;75.75;99789.69;225578;1278;25927;-74
2023/05/08 03:38:52;;;;;;;5.80;4.30;;;;;;;6.08;75.85;99789.47;225562;1282;22541;-74
2023/05/08 03:44:04;;;;;;;4.80;4.40;;;;;;;6.10;75.95;99788.95;225545;1282;22571;-74
2023/05/08 03:49:11;;;;;;;3.30;3.00;;;;;;;6.06;75.48;99789.85;225611;1278;24239;-75
2023/05/08 03:54:14;;;;;;;4.10;3.40;;;;;;;5.99;75.21;99794.98;225555;1278;25242;-75
2023/05/08 03:59:37;;;;;;;3.90;3.20;;;;;;;5.96;75.27;99798.91;225561;1282;22553;-75
2023/05/08 04:04:43;;;;;;;3.90;2.80;;;;;;;5.94;74.94;99798.22;225538;1281;24218;-75
2023/05/08 04:09:54;;;;;;;4.70;3.10;;;;;;;5.93;74.79;99807.60;225571;1281;22545;-75
2023/05/08 04:15:16;;;;;;;3.50;3.10;;;;;;;5.93;75.01;99812.62;225604;1275;22544;-74
2023/05/08 04:20:26;;;;;;;4.00;3.60;;;;;;;5.98;75.09;99816.90;225479;1281;22548;-73
2023/05/08 04:25:41;;;;;;;3.50;3.20;;;;;;;6.03;74.51;99820.16;225581;1277;25321;-74
2023/05/08 04:30:54;;;;;;;6.60;3.80;;;;;;;6.09;74.37;99825.58;225515;1282;22541;-75
2023/05/08 04:36:05;;;;;;;4.50;3.50;;;;;;;6.19;74.26;99829.10;225404;1282;22550;-76
2023/05/08 04:41:13;;;;;;;4.40;4.00;;;;;;;6.32;74.65;99835.95;225628;1282;22716;-76
2023/05/08 04:46:23;;;;;;;5.30;4.20;;;;;;;6.54;74.57;99833.48;225562;1282;22541;-75
2023/05/08 04:51:31;;;;;;;3.40;3.10;;;;;;;6.83;73.93;99834.73;225625;1279;22544;-75
2023/05/08 04:56:35;;;;;;;4.30;3.00;;;;;;;7.05;73.40;99836.59;225598;1278;22540;-77
2023/05/08 05:01:37;;;;;;;3.20;2.90;;;;;;;7.22;73.34;99843.63;225582;1281;22529;-74
2023/05/08 05:06:59;;;;;;;3.00;2.70;;;;;;;7.31;72.46;99846.98;225551;1278;22559;-75
2023/05/08 05:12:16;;;;;;;4.90;3.80;;;;;;;7.39;71.98;99851.50;225570;1282;22527;-76
2023/05/08 05:17:23;;;;;;;4.20;3.30;;;;;;;7.52;71.84;99857.52;225594;1282;22567;-75
2023/05/08 05:22:34;;;;;;;4.00;3.60;;;;;;;7.62;71.24;99860.61;225506;1282;22539;-76
2023/05/08 05:27:41;;;;;;;;;;;;;;;7.63;71.15;99869.88;225592;1282;22599;-75
2023/05/08 05:32:44;;;;;;;4.70;4.00;;;;;;;7.68;71.37;99870.55;225547;1278;24767;-71
2023/05/08 05:37:47;;;;;;;4.70;3.60;;;;;;;7.86;71.10;99874.05;225410;1282;22591;-74
2023/05/08 05:42:52;;;;;;;3.90;2.90;;;;;;;7.94;71.24;99876.66;225417;1275;25404;-74
2023/05/08 05:47:55;;;;;;;3.10;2.80;;;;;;;7.98;70.50;99884.15;225448;1281;23092;-73
2023/05/08 05:52:58;;;;;;;2.90;2.70;;;;;;;8.11;70.74;99886.96;225339;1279;23278;-75
2023/05/08 05:58:01;;;;;;;3.50;2.90;;;;;;;8.14;70.40;99902.48;225138;1279;22568;-74
2023/05/08 06:03:03;;;;;;;3.20;2.90;;;;;;;8.18;70.01;99905.79;224567;1278;137583;-76
2023/05/08 06:08:08;;;;;;;3.80;2.90;;;;;;;8.21;69.53;99906.77;225051;1275;138053;-73
2023/05/08 06:13:10;;;;;;;3.00;2.80;;;;;;;8.18;69.43;99915.27;224853;1260;137796;-74
2023/05/08 06:18:18;;;;;;;3.90;2.90;;;;;;;8.18;69.31;99920.89;224773;1271;137579;-75
2023/05/08 06:23:28;;;;;;;3.20;2.90;;;;;;;8.18;69.26;99925.48;224751;1271;137716;-75
2023/05/08 06:28:41;;;;;;;3.80;2.80;;;;;;;8.22;68.98;99930.34;224507;1275;137860;-76
2023/05/08 06:33:43;;;;;;;3.50;3.10;;;;;;;8.24;68.68;99929.66;224613;1265;138060;-74
2023/05/08 06:38:45;;;;;;;3.80;3.20;;;;;;;8.30;68.64;99934.16;224790;1279;23638;-74
2023/05/08 06:43:48;;;;;;;3.80;3.30;;;;;;;8.40;68.64;99937.27;224812;1279;22535;-74
2023/05/08 06:48:50;;;;;;;3.50;3.20;;;;;;;8.51;68.43;99939.71;224936;1265;138189;-74
2023/05/08 06:53:55;;;;;;;2.90;2.60;;;;;;;8.60;68.46;99942.52;224814;1271;137993;-75
2023/05/08 06:59:03;;;;;;;3.30;3.00;;;;;;;8.63;67.79;99945.91;224815;1261;137960;-77
2023/05/08 07:04:21;;;;;;;4.50;3.00;;;;;;;8.71;67.81;99951.09;224660;1267;137897;-76
2023/05/08 07:09:38;;;;;;;5.60;3.40;;;;;;;8.75;67.31;99958.44;224753;1276;137934;-73
2023/05/08 07:14:40;;;;;;;4.80;4.30;;;;;;;8.89;67.81;99958.04;224896;1263;22545;-73
2023/05/08 07:19:49;;;;;;;4.60;4.20;;;;;;;9.01;67.14;99963.31;224684;1269;137997;-73
2023/05/08 07:24:55;;;;;;;5.40;3.90;;;;;;;9.13;67.50;99962.28;224734;1264;137757;-75
2023/05/08 07:30:03;;;;;;;4.20;3.80;;;;;;;9.25;66.93;99964.69;225009;1267;137955;-74
2023/05/08 07:35:10;;;;;;;4.50;4.00;;;;;;;9.41;67.06;99968.35;225004;1265;138077;-75
2023/05/08 07:40:12;;;;;;;3.80;3.20;;;;;;;9.67;66.57;99971.56;224976;1265;137992;-74
2023/05/08 07:45:17;;;;;;;3.20;2.40;;;;;;;9.83;66.04;99974.98;224913;1265;137987;-76
2023/05/08 07:50:25;;;;;;;4.10;2.90;;;;;;;9.80;65.31;99974.80;224945;1265;22539;-75
2023/05/08 07:55:27;;;;;;;3.90;3.60;;;;;;;9.94;65.27;99974.31;224907;1259;137053;-72
2023/05/08 08:00:32;;;;;;;4.20;3.20;;;;;;;10.21;65.51;99975.82;224823;1272;137089;-78
2023/05/08 08:05:46;;;;;;;4.40;3.80;;;;;;;10.37;64.28;99973.42;224979;1282;137360;-75
2023/05/08 08:10:49;;;;;;;4.00;3.10;;;;;;;10.47;63.85;99976.14;225090;1279;137469;-75
2023/05/08 08:15:59;;;;;;;5.10;3.30;;;;;;;10.50;63.83;99974.77;224929;1272;137354;-75
2023/05/08 08:21:05;;;;;;;3.40;2.80;;;;;;;10.60;63.49;99981.43;225056;1282;138022;-75
2023/05/08 08:26:10;;;;;;;3.80;3.30;;;;;;;10.64;63.14;99982.41;225277;1278;22570;-73
2023/05/08 08:31:15;;;;;;;5.30;2.80;;;;;;;10.77;63.55;99976.20;225067;1272;137145;-75
2023/05/08 08:36:25;;;;;;;4.10;2.90;;;;;;;11.00;63.52;99974.82;225092;1282;138106;-74
2023/05/08 08:41:32;;;;;;;3.50;2.90;;;;;;;10.95;63.10;99971.81;224987;1274;137391;-76
2023/05/08 08:46:46;;;;;;;2.90;2.60;;;;;;;10.82;62.79;99976.52;224806;1283;137612;-74
2023/05/08 08:52:05;;;;;;;3.20;2.90;;;;;;;10.79;62.77;99979.65;224848;1270;137976;-77
2023/05/08 08:57:08;;;;;;;3.10;2.30;;;;;;;11.03;62.72;99987.16;225012;1281;137350;-78
2023/05/08 09:02:16;;;;;;;3.00;2.70;;;;;;;11.31;61.84;99988.02;225114;1281;23115;-77
2023/05/08 09:07:24;;;;;;;2.60;2.40;;;;;;;11.73;61.43;99990.05;224956;1281;137067;-78
2023/05/08 09:12:29;;;;;;;3.70;2.50;;;;;;;12.13;60.64;99997.36;224981;1272;137210;-76
2023/05/08 09:17:34;;;;;;;3.80;2.50;;;;;;;12.30;60.68;99999.55;224842;1272;137446;-77
2023/05/08 09:23:05;;;;;;;4.20;2.60;;;;;;;12.35;60.00;99999.83;224899;1275;137507;-76
2023/05/08 09:28:19;;;;;;;4.40;2.40;;;;;;;12.04;59.34;99995.15;224765;1284;137372;-77
2023/05/08 09:33:38;;;;;;;4.30;2.80;;;;;;;11.74;59.04;99998.06;224827;1271;137393;-78
2023/05/08 09:38:43;;;;;;;2.90;2.40;;;;;;;11.96;60.15;99998.37;224956;1275;25303;-77
2023/05/08 09:44:01;;;;;;;3.40;2.70;;;;;;;12.32;59.75;99995.47;224891;1264;22545;-79
2023/05/08 09:49:05;;;;;;;3.00;2.70;;;;;;;12.63;59.50;99992.89;225096;1261;137071;-79
2023/05/08 09:54:16;;;;;;;6.00;3.60;;;;;;;12.86;59.20;99990.94;225158;1282;137447;-80
2023/05/08 09:59:32;;;;;;;2.90;2.40;;;;;;;12.98;58.82;99981.95;224967;1266;137507;-79
2023/05/08 10:04:41;;;;;;;3.20;2.90;;;;;;;13.03;58.38;99978.52;225082;1263;137395;-77
2023/05/08 10:10:04;;;;;;;3.40;2.70;;;;;;;13.11;58.29;99979.40;224901;1281;137523;-75
2023/05/08 10:15:09;;;;;;;2.90;2.60;;;;;;;12.94;57.74;99974.66;224855;1267;137447;-78
2023/05/08 10:20:26;;;;;;;3.20;2.90;;;;;;;12.81;57.82;99974.95;224904;1282;25237;-78
2023/05/08 10:25:35;;;;;;;2.40;2.20;;;;;;;12.90;57.92;99965.23;224890;1266;137244;-77
2023/05/08 10:30:49;;;;;;;3.60;2.50;;;;;;;13.29;57.96;99958.13;225083;1282;137244;-77
2023/05/08 10:36:00;;;;;;;4.60;2.70;;;;;;;13.37;57.52;99951.90;225185;1271;138417;-78
2023/05/08 10:41:12;;;;;;;4.00;2.30;;;;;;;13.63;57.70;99940.59;225027;1282;137378;-76
2023/05/08 10:46:33;;;;;;;6.30;2.70;;;;;;;13.85;56.82;99941.48;224957;1277;137405;-77
2023/05/08 10:52:29;;;;;;;4.00;2.80;;;;;;;13.96;56.33;99939.73;224951;1277;137522;-75
2023/05/08 10:57:32;;;;;;;3.70;2.70;;;;;;;13.67;55.43;99941.27;224876;1280;137498;-75
2023/05/08 11:02:37;;;;;;;2.80;2.50;;;;;;;13.22;55.77;99938.92;225020;1277;22592;-76
2023/05/08 11:08:16;;;;;;;3.90;3.00;;;;;;;12.86;56.32;99931.89;224949;1276;137856;-75
2023/05/08 11:13:36;;;;;;;3.60;3.00;;;;;;;12.69;57.05;99932.77;225026;1280;137188;-76
2023/05/08 11:19:15;;;;;;;3.00;2.40;;;;;;;12.62;57.29;99927.73;225033;1277;137244;-74
2023/05/08 11:24:38;;;;;;;4.10;2.70;;;;;;;12.86;58.13;99925.16;224866;1267;137431;-75
2023/05/08 11:29:43;;;;;;;4.50;1.80;;;;;;;13.36;57.04;99918.76;224977;1261;137469;-75
2023/05/08 11:34:50;;;;;;;2.70;2.40;;;;;;;13.69;55.87;99920.37;224914;1277;137444;-74
2023/05/08 11:39:53;;;;;;;2.70;2.50;;;;;;;13.80;55.21;99916.80;224897;1275;137491;-74
2023/05/08 11:45:08;;;;;;;4.80;2.70;;;;;;;13.97;55.07;99914.16;225096;1275;137534;-75
2023/05/08 11:50:16;;;;;;;3.20;2.40;;;;;;;14.26;55.25;99908.59;225289;1282;22657;-74
2023/05/08 11:55:28;;;;;;;5.00;3.20;;;;;;;14.54;54.34;99907.52;225120;1282;137218;-75
2023/05/08 12:00:39;;;;;;;7.50;2.90;;;;;;;14.77;53.74;99900.42;225067;1275;137199;-75
2023/05/08 12:05:48;;;;;;;3.90;3.00;;;;;;;14.97;53.53;99909.21;225174;1270;137354;-76
2023/05/08 12:10:53;;;;;;;4.00;2.90;;;;;;;14.93;53.63;99906.70;225188;1279;137436;-74
2023/05/08 12:15:58;;;;;;;3.20;2.90;;;;;;;14.88;53.88;99909.23;224967;1265;137395;-74
2023/05/08 12:21:20;;;;;;;4.10;2.70;;;;;;;14.63;53.42;99906.89;225044;1273;137436;-73
2023/05/08 12:26:37;;;;;;;3.00;2.20;;;;;;;14.47;52.80;99919.30;225153;1277;22540;-73
2023/05/08 12:31:45;;;;;;;3.70;2.50;;;;;;;14.40;53.02;99919.52;225015;1280;137058;-72
2023/05/08 12:36:56;;;;;;;2.90;2.20;;;;;;;14.45;52.84;99912.31;225081;1280;137472;-73
2023/05/08 12:41:59;;;;;;;2.70;2.10;;;;;;;14.49;52.75;99908.84;224886;1270;137505;-76
2023/05/08 12:47:05;;;;;;;3.30;2.10;;;;;;;14.51;52.66;99907.40;224942;1277;137404;-75
2023/05/08 12:52:11;;;;;;;2.90;2.30;;;;;;;14.57;52.92;99909.71;224945;1264;137382;-73
2023/05/08 12:57:21;;;;;;;2.30;2.10;;;;;;;14.65;52.84;99905.08;224944;1282;137397;-74
2023/05/08 13:02:26;;;;;;;2.40;2.10;;;;;;;14.78;52.76;99905.45;225050;1276;22564;-74
2023/05/08 13:07:35;;;;;;;5.10;3.70;;;;;;;14.86;52.62;99906.05;224956;1282;137071;-77
2023/05/08 13:12:37;;;;;;;3.20;2.20;;;;;;;14.53;52.58;99903.45;224930;1263;137465;-74
2023/05/08 13:17:40;;;;;;;3.70;2.20;;;;;;;14.10;52.56;99904.61;225017;1279;137364;-74
2023/05/08 13:22:42;;;;;;;3.30;2.30;;;;;;;13.77;52.87;99900.84;225190;1279;137402;-76
2023/05/08 13:27:46;;;;;;;4.90;2.60;;;;;;;13.49;53.04;99902.16;224872;1272;137451;-76
2023/05/08 13:32:52;;;;;;;2.50;1.60;;;;;;;13.26;53.09;99897.61;224831;1268;137548;-75
2023/05/08 13:37:56;;;;;;;2.30;1.90;;;;;;;13.03;53.15;99888.68;225249;1259;22545;-76
2023/05/08 13:42:58;;;;;;;1.90;1.80;;;;;;;13.04;53.93;99884.50;224922;1263;137290;-77
2023/05/08 13:48:04;;;;;;;2.90;2.10;;;;;;;13.44;54.30;99883.98;225095;1275;137426;-76
2023/05/08 13:53:10;;;;;;;2.10;1.90;;;;;;;13.76;53.77;99887.64;224921;1262;137527;-76
2023/05/08 13:58:20;;;;;;;;;;;;;;;13.74;53.80;99888.89;225051;1264;137410;-78
2023/05/08 14:03:22;;;;;;;2.10;1.60;;;;;;;13.69;53.35;99884.35;224974;1267;22583;-78
2023/05/08 14:08:30;;;;;;;2.00;1.70;;;;;;;13.54;52.62;99879.77;225061;1282;22558;-78
2023/05/08 14:13:39;;;;;;;2.50;1.90;;;;;;;13.37;53.03;99875.95;225212;1282;22544;-78
2023/05/08 14:18:50;;;;;;;2.40;1.50;;;;;;;13.30;53.18;99878.69;225162;1265;22561;-76
2023/05/08 14:23:59;;;;;;;3.10;1.70;;;;;;;13.29;52.77;99879.04;225502;1279;25452;-77
2023/05/08 14:29:04;;;;;;;6.60;3.80;;;;;;;13.40;52.54;99874.42;225556;1278;22548;-78
2023/05/08 14:34:10;;;;;;;5.70;2.10;;;;;;;13.67;52.98;99868.89;225528;1282;25325;-77
2023/05/08 14:39:17;;;;;;;2.80;1.60;;;;;;;13.91;52.05;99866.33;225593;1282;22713;-76
2023/05/08 14:44:23;;;;;;;3.80;1.90;;;;;;;14.25;52.71;99868.83;225609;1282;22550;-77
2023/05/08 14:49:31;;;;;;;2.50;2.10;;;;;;;14.32;52.13;99872.69;225458;1282;24295;-77
2023/05/08 14:54:52;;;;;;;3.30;2.10;;;;;;;14.10;51.90;99880.86;225504;1282;25292;-76
2023/05/08 15:00:27;;;;;;;4.20;2.00;;;;;;;13.80;52.11;99888.92;225033;1278;22637;-77
2023/05/08 15:06:06;;;;;;;2.70;1.70;;;;;;;13.65;52.18;99894.05;225128;1285;22642;-77
2023/05/08 15:11:33;;;;;;;2.90;1.80;;;;;;;13.73;52.37;99889.42;225199;1285;24935;-78
2023/05/08 15:16:45;;;;;;;2.70;1.80;;;;;;;14.15;52.54;99886.02;225169;1262;25526;-78
2023/05/08 15:21:50;;;;;;;2.80;1.90;;;;;;;14.49;52.19;99887.73;225280;1282;22559;-76
2023/05/08 15:26:55;;;;;;;1.90;1.60;;;;;;;14.34;52.00;99891.42;225516;1279;22568;-77
2023/05/08 15:32:08;;;;;;;4.70;1.70;;;;;;;14.01;51.56;99888.13;225528;1282;22589;-78
2023/05/08 15:37:11;;;;;;;2.70;1.40;;;;;;;13.97;51.89;99879.29;225582;1279;22551;-76
2023/05/08 15:42:13;;;;;;;2.00;1.40;;;;;;;14.18;51.92;99881.33;225555;1279;22609;-78
2023/05/08 15:47:26;;;;;;;3.20;1.90;;;;;;;14.41;51.71;99877.15;225654;1281;22566;-78
2023/05/08 15:52:32;;;;;;;2.60;1.50;;;;;;;14.27;50.69;99881.98;225505;1280;22549;-76
2023/05/08 15:57:35;;;;;;;2.00;1.80;;;;;;;14.01;50.92;99882.40;225509;1275;22560;-77
2023/05/08 16:02:37;;;;;;;3.50;2.10;;;;;;;13.73;51.02;99878.77;225663;1278;22689;-77
2023/05/08 16:07:53;;;;;;;2.40;1.70;;;;;;;13.40;51.07;99874.56;225541;1282;22536;-77
2023/05/08 16:12:57;;;;;;;2.30;1.60;;;;;;;13.24;51.73;99872.00;225620;1282;22557;-76
2023/05/08 16:18:06;;;;;;;2.70;1.60;;;;;;;13.17;51.85;99867.02;225597;1278;22611;-77
2023/05/08 16:23:09;;;;;;;1.70;1.50;;;;;;;13.07;51.79;99864.16;225556;1280;22537;-76
2023/05/08 16:28:14;;;;;;;1.90;1.80;;;;;;;13.15;52.09;99858.70;225661;1278;22546;-76
2023/05/08 16:33:22;;;;;;;2.40;2.00;;;;;;;13.13;52.28;99864.91;225578;1278;22543;-76
2023/05/08 16:38:32;;;;;;;;;;;;;;;12.96;52.34;99861.90;225547;1278;22520;-77
2023/05/08 16:43:34;;;;;;;2.90;1.90;;;;;;;12.74;52.64;99865.02;225575;1278;22608;-76
2023/05/08 16:48:37;;;;;;;3.20;2.40;;;;;;;12.55;52.55;99871.50;225528;1280;24745;-77
2023/05/08 16:53:39;;;;;;;3.10;2.50;;;;;;;12.42;53.40;99876.70;225550;1280;22564;-76
2023/05/08 16:58:42;;;;;;;3.00;1.90;;;;;;;12.28;53.69;99872.71;225569;1276;24742;-76
2023/05/08 17:03:44;;;;;;;2.60;2.10;;;;;;;12.08;53.65;99877.86;225585;1259;22544;-77
2023/05/08 17:08:47;;;;;;;3.00;2.50;;;;;;;11.84;54.05;99880.89;225630;1280;22536;-77
2023/05/08 17:13:50;;;;;;;3.90;1.90;;;;;;;11.58;54.48;99880.16;225501;1280;25250;-76
2023/05/08 17:18:53;;;;;;;3.60;2.30;;;;;;;11.35;54.70;99878.59;225550;1280;22677;-76
2023/05/08 17:23:55;;;;;;;3.50;1.80;;;;;;;11.20;55.19;99879.34;225544;1279;25769;-77
2023/05/08 17:28:58;;;;;;;3.40;2.30;;;;;;;11.16;55.35;99877.17;225591;1275;22563;-77
2023/05/08 17:34:00;;;;;;;3.00;2.20;;;;;;;11.20;55.83;99872.73;225455;1281;22550;-77
2023/05/08 17:39:08;;;;;;;4.20;2.40;;;;;;;11.23;55.99;99869.14;225532;1279;25253;-76
2023/05/08 17:44:10;;;;;;;4.10;2.40;;;;;;;11.22;56.24;99865.17;225595;1280;22547;-76
2023/05/08 17:49:13;;;;;;;3.30;2.30;;;;;;;11.16;56.36;99864.49;225522;1282;22554;-76
2023/05/08 17:54:18;;;;;;;3.20;2.50;;;;;;;11.00;56.59;99865.98;225417;1278;22549;-76
2023/05/08 17:59:20;;;;;;;4.30;2.70;;;;;;;10.78;56.90;99865.55;225489;1279;22636;-75
2023/05/08 18:04:22;;;;;;;3.80;2.70;;;;;;;10.50;57.16;99878.42;225539;1275;22536;-77
2023/05/08 18:09:24;;;;;;;6.40;4.30;;;;;;;10.20;57.68;99881.36;225499;1278;22661;-77
2023/05/08 18:14:30;;;;;;;4.10;3.30;;;;;;;9.91;58.38;99883.11;225562;1278;22560;-76
2023/05/08 18:19:35;;;;;;;5.00;3.30;;;;;;;9.67;58.78;99883.83;225551;1278;22555;-77
2023/05/08 18:24:39;;;;;;;5.20;3.70;;;;;;;9.49;59.47;99884.70;225540;1278;22567;-76
2023/05/08 18:29:42;;;;;;;4.90;3.50;;;;;;;9.28;59.41;99884.23;225493;1278;23293;-76
2023/05/08 18:34:45;;;;;;;5.20;3.60;;;;;;;9.05;60.64;99886.35;225542;1278;22754;-76
2023/05/08 18:39:50;;;;;;;6.90;4.20;;;;;;;8.84;60.82;99887.18;225603;1276;24264;-76
2023/05/08 18:44:55;;;;;;;5.60;4.40;;;;;;;8.61;61.49;99893.83;225584;1282;25430;-76
2023/05/08 18:49:58;;;;;;;5.70;3.80;;;;;;;8.38;61.72;99895.47;225489;1280;22539;-77
2023/05/08 18:55:11;;;;;;;5.80;3.90;;;;;;;8.17;62.38;99895.18;225540;1282;24242;-76
2023/05/08 19:00:18;;;;;;;7.90;5.60;;;;;;;8.00;62.43;99904.20;225537;1282;22543;-76
2023/05/08 19:05:21;;;;;;;9.00;5.20;;;;;;;7.83;63.15;99905.75;225524;1275;22564;-76
2023/05/08 19:10:24;;;;;;;9.70;6.70;;;;;;;7.69;63.46;99909.52;225553;1272;22551;-75
2023/05/08 19:15:27;;;;;;;8.20;6.00;;;;;;;7.56;63.89;99910.45;225533;1280;22544;-76
2023/05/08 19:20:29;;;;;;;7.70;6.30;;;;;;;7.41;64.38;99903.14;225400;1281;22551;-76
2023/05/08 19:25:32;;;;;;;8.70;6.10;;;;;;;7.30;64.41;99901.57;225568;1276;22549;-76
2023/05/08 19:30:35;;;;;;;11.30;6.20;;;;;;;7.24;65.04;99900.20;225441;1280;22976;-76
2023/05/08 19:35:38;;;;;;;10.00;5.80;;;;;;;7.22;65.37;99904.77;225400;1282;22586;-75
2023/05/08 19:40:40;;;;;;;11.50;6.10;;;;;;;7.18;65.24;99904.59;225478;1280;22657;-76
2023/05/08 19:45:59;;;;;;;12.50;6.80;;;;;;;7.08;65.77;99899.56;225570;1275;22536;-76
2023/05/08 19:51:08;;;;;;;9.60;6.20;;;;;;;6.97;66.24;99892.64;225490;1280;22549;-75
2023/05/08 19:56:11;;;;;;;12.80;7.10;;;;;;;6.87;66.62;99883.39;225436;1280;22537;-75
2023/05/08 20:01:14;;;;;;;10.50;7.00;;;;;;;6.77;66.54;99880.96;225503;1279;22579;-75
2023/05/08 20:06:18;;;;;;;9.40;7.00;;;;;;;6.68;66.82;99884.67;225529;1278;22575;-74
2023/05/08 20:11:21;;;;;;;10.20;7.30;;;;;;;6.62;67.35;99890.52;225448;1279;22578;-75
2023/05/08 20:16:29;;;;;;;14.50;8.90;;;;;;;6.53;67.56;99886.77;225337;1278;22583;-76
2023/05/08 20:21:32;;;;;;;15.40;9.70;;;;;;;6.41;67.68;99879.25;225447;1280;22560;-76
2023/05/08 20:26:37;;;;;;;14.50;10.20;;;;;;;6.30;67.81;99876.92;225445;1282;24324;-75
2023/05/08 20:31:43;;;;;;;15.50;10.70;;;;;;;6.19;68.08;99875.30;225564;1279;22543;-75
2023/05/08 20:36:48;;;;;;;13.10;9.80;;;;;;;6.08;68.33;99875.88;225522;1282;22693;-77
2023/05/08 20:41:50;;;;;;;12.50;9.60;;;;;;;5.99;68.45;99875.96;225495;1280;22526;-76
2023/05/08 20:46:53;;;;;;;13.10;9.20;;;;;;;5.89;68.82;99874.84;225510;1278;22553;-75
2023/05/08 20:51:58;;;;;;;13.50;10.00;;;;;;;5.80;69.09;99872.29;225527;1279;22571;-75
2023/05/08 20:57:03;;;;;;;12.70;9.00;;;;;;;5.71;69.22;99871.34;225412;1281;22550;-75
2023/05/08 21:02:09;;;;;;;14.60;10.40;;;;;;;5.61;69.57;99878.42;225578;1275;25339;-75
2023/05/08 21:07:19;;;;;;;13.10;9.80;;;;;;;5.52;69.74;99872.90;225423;1282;22548;-75
2023/05/08 21:12:31;;;;;;;18.70;10.40;;;;;;;5.44;69.96;99865.44;225476;1278;22574;-77
2023/05/08 21:17:34;;;;;;;15.70;10.10;;;;;;;5.36;70.09;99863.70;225497;1282;22559;-76
2023/05/08 21:22:46;;;;;;;14.00;9.80;;;;;;;5.27;70.52;99866.33;225433;1282;22547;-75
2023/05/08 21:28:03;;;;;;;15.60;10.40;;;;;;;5.19;70.73;99862.30;225556;1279;22562;-75
2023/05/08 21:33:08;;;;;;;15.10;9.80;;;;;;;5.12;71.05;99862.35;225569;1275;23638;-76
2023/05/08 21:38:41;;;;;;;20.00;10.20;;;;;;;5.08;71.57;99854.95;225476;1280;22550;-75
2023/05/08 21:43:59;;;;;;;16.60;10.60;;;;;;;5.08;71.86;99857.41;225527;1280;22539;-75
2023/05/08 21:49:05;;;;;;;17.60;11.70;;;;;;;5.06;71.80;99856.33;225524;1279;22549;-76
2023/05/08 21:54:08;;;;;;;20.90;11.30;;;;;;;5.00;71.86;99855.29;225528;1281;22546;-75
2023/05/08 21:59:13;;;;;;;14.90;9.90;;;;;;;4.91;71.92;99855.98;225687;1278;22569;-75
2023/05/08 22:04:28;;;;;;;18.00;10.80;;;;;;;4.85;72.29;99855.86;225505;1282;22540;-76
2023/05/08 22:09:35;;;;;;;15.30;10.70;;;;;;;4.81;72.55;99847.98;225492;1281;22539;-75
2023/05/08 22:14:44;;;;;;;16.10;10.90;;;;;;;4.78;72.64;99843.82;225451;1280;22542;-75
2023/05/08 22:19:51;;;;;;;18.00;11.20;;;;;;;4.74;72.77;99840.16;225322;1281;22989;-76
2023/05/08 22:25:15;;;;;;;16.90;11.10;;;;;;;4.69;72.79;99838.66;225479;1282;22546;-76
2023/05/08 22:30:27;;;;;;;16.20;10.80;;;;;;;4.65;73.24;99836.21;225500;1280;25409;-76
2023/05/08 22:35:35;;;;;;;18.00;11.00;;;;;;;4.62;73.36;99834.31;225480;1282;22536;-76
2023/05/08 22:40:48;;;;;;;17.60;10.50;;;;;;;4.60;73.49;99834.28;223161;1280;3022765;-75
2023/05/08 22:45:51;;;;;;;16.90;11.50;;;;;;;4.58;73.57;99827.52;225536;1282;22575;-74
2023/05/08 22:50:59;;;;;;;17.60;10.70;;;;;;;4.53;73.68;99823.02;225478;1278;25232;-75
2023/05/08 22:56:04;;;;;;;16.20;9.90;;;;;;;4.48;73.79;99820.78;225443;1278;24392;-74
2023/05/08 23:01:07;;;;;;;12.60;9.00;;;;;;;4.44;73.77;99817.83;225516;1282;22557;-75
2023/05/08 23:06:14;;;;;;;13.20;8.70;;;;;;;4.43;74.02;99817.94;225333;1282;22519;-75
2023/05/08 23:11:21;;;;;;;12.20;8.40;;;;;;;4.41;74.11;99819.14;225498;1278;25307;-75
2023/05/08 23:16:39;;;;;;;12.40;8.70;;;;;;;4.33;74.08;99818.35;225448;1281;22547;-76
2023/05/08 23:21:41;;;;;;;14.90;10.10;;;;;;;4.25;74.09;99817.40;225552;1279;22539;-76
2023/05/08 23:26:51;;;;;;;15.50;10.10;;;;;;;4.16;74.28;99812.06;225570;1279;23068;-76
2023/05/08 23:32:00;;;;;;;13.00;9.60;;;;;;;4.09;74.48;99810.15;225587;1278;22562;-75
2023/05/08 23:37:06;;;;;;;15.70;10.00;;;;;;;4.01;74.57;99809.73;225534;1282;25439;-75
2023/05/08 23:42:08;;;;;;;16.10;10.70;;;;;;;3.96;74.86;99804.26;225579;1282;22537;-75
2023/05/08 23:47:26;;;;;;;15.90;10.50;;;;;;;3.89;74.93;99797.65;225474;1282;22536;-75
2023/05/08 23:52:28;;;;;;;17.30;10.80;;;;;;;3.82;74.88;99798.54;225618;1281;22539;-76
2023/05/08 23:57:41;;;;;;;12.00;8.70;;;;;;;3.75;75.24;99790.55;225450;1282;22538;-76
